Time;durP1;ratioP1;P1;durP2;ratioP2;P2;SDS_P1;SDS_P2;PMS_P1;PMS_P2;Temp;Humidity;BMP_temperature;BMP_pressure;BME280_temperature;BME280_humidity;BME280_pressure;Samples;Min_cycle;Max_cycle;Signal;HPM_P1;HPM_P2
2023/12/10 00:01:46;;;;;;;30.60;18.40;;;;;;;-3.10;100.00;100620.78;88266;276;137015;-68
2023/12/10 00:03:48;;;;;;;27.20;17.80;;;;;;;-3.09;100.00;100617.71;88388;283;24173;-68
2023/12/10 00:05:51;;;;;;;24.90;17.10;;;;;;;-3.07;100.00;100612.90;88261;282;137198;-67
2023/12/10 00:08:08;;;;;;;28.10;18.50;;;;;;;-3.05;100.00;100617.66;88275;280;137669;-69
2023/12/10 00:10:10;;;;;;;31.20;19.90;;;;;;;-3.03;100.00;100621.58;88378;283;25086;-67
2023/12/10 00:12:12;;;;;;;28.40;16.80;;;;;;;-3.05;100.00;100624.30;88307;283;138806;-66
2023/12/10 00:14:14;;;;;;;33.70;18.90;;;;;;;-3.10;100.00;100622.70;88347;275;22783;-66
2023/12/10 00:16:16;;;;;;;33.40;20.60;;;;;;;-3.18;100.00;100620.36;88290;277;137572;-67
2023/12/10 00:18:22;;;;;;;34.70;21.30;;;;;;;-3.22;100.00;100625.30;88393;282;22534;-66
2023/12/10 00:20:26;;;;;;;32.50;19.30;;;;;;;-3.21;100.00;100621.60;88367;282;137520;-67
2023/12/10 00:22:28;;;;;;;34.10;20.60;;;;;;;-3.16;100.00;100625.69;88424;283;22540;-70
2023/12/10 00:24:31;;;;;;;33.90;20.30;;;;;;;-3.16;100.00;100617.46;88477;285;136477;-68
2023/12/10 00:26:33;;;;;;;27.00;18.70;;;;;;;-3.17;100.00;100620.82;88469;284;24134;-68
2023/12/10 00:28:36;;;;;;;31.00;21.00;;;;;;;-3.17;100.00;100617.72;88381;278;138409;-68
2023/12/10 00:30:37;;;;;;;33.40;19.90;;;;;;;-3.18;100.00;100618.13;88486;278;22944;-66
2023/12/10 00:32:40;;;;;;;35.30;19.60;;;;;;;-3.19;100.00;100616.80;88388;282;137965;-69
2023/12/10 00:34:42;;;;;;;30.10;18.80;;;;;;;-3.18;100.00;100610.81;88400;282;22531;-68
2023/12/10 00:36:44;;;;;;;32.70;19.50;;;;;;;-3.15;100.00;100610.77;88344;275;137474;-66
2023/12/10 00:38:46;;;;;;;30.70;20.00;;;;;;;-3.10;100.00;100608.97;88455;282;22530;-68
2023/12/10 00:40:48;;;;;;;32.70;20.40;;;;;;;-3.06;100.00;100611.84;88329;278;137071;-69
2023/12/10 00:42:51;;;;;;;34.10;20.20;;;;;;;-3.03;100.00;100612.83;88370;275;22537;-67
2023/12/10 00:44:53;;;;;;;32.40;19.90;;;;;;;-3.00;100.00;100610.38;88579;280;137611;-67
2023/12/10 00:46:57;;;;;;;33.50;20.80;;;;;;;-2.98;100.00;100611.52;88578;282;22612;-67
2023/12/10 00:48:59;;;;;;;30.60;20.00;;;;;;;-2.96;100.00;100608.95;88391;282;138011;-66
2023/12/10 00:51:01;;;;;;;32.10;21.00;;;;;;;-2.96;100.00;100610.38;88423;282;25153;-69
2023/12/10 00:53:04;;;;;;;31.60;21.00;;;;;;;-2.99;100.00;100611.77;88168;283;136479;-67
2023/12/10 00:55:06;;;;;;;33.30;20.80;;;;;;;-3.02;100.00;100614.70;88698;282;22549;-67
2023/12/10 00:57:12;;;;;;;30.80;20.50;;;;;;;-3.05;100.00;100611.80;88284;276;136541;-67
2023/12/10 00:59:14;;;;;;;;;;;;;;;-3.08;100.00;100614.73;88568;282;22780;-68
2023/12/10 01:01:16;;;;;;;34.90;19.10;;;;;;;-3.09;100.00;100611.66;88451;281;122996;-68
2023/12/10 01:03:18;;;;;;;32.10;19.00;;;;;;;-3.04;100.00;100614.80;88517;278;25245;-67
2023/12/10 01:05:21;;;;;;;35.60;20.00;;;;;;;-3.02;100.00;100614.16;88235;282;137291;-66
2023/12/10 01:07:23;;;;;;;31.90;20.40;;;;;;;-3.02;100.00;100613.14;88431;282;24037;-68
2023/12/10 01:09:25;;;;;;;30.90;19.10;;;;;;;-3.01;100.00;100616.05;88258;279;138192;-69
2023/12/10 01:11:29;;;;;;;29.60;18.70;;;;;;;-2.97;100.00;100618.43;88418;282;25118;-67
2023/12/10 01:13:31;;;;;;;28.10;17.40;;;;;;;-2.92;100.00;100613.95;88377;278;137510;-67
2023/12/10 01:15:33;;;;;;;28.00;18.20;;;;;;;-2.91;100.00;100612.12;88454;275;22530;-66
2023/12/10 01:17:36;;;;;;;30.50;19.90;;;;;;;-2.92;100.00;100609.61;88352;275;137362;-70
2023/12/10 01:19:39;;;;;;;32.50;20.90;;;;;;;-2.94;100.00;100606.54;88441;275;25083;-70
2023/12/10 01:21:40;;;;;;;25.50;19.10;;;;;;;-2.96;100.00;100602.70;88349;282;136449;-66
2023/12/10 01:23:42;;;;;;;32.70;19.50;;;;;;;-2.98;100.00;100600.17;88339;276;22541;-68
2023/12/10 01:25:45;;;;;;;27.70;18.80;;;;;;;-3.01;100.00;100597.79;88511;282;136724;-67
2023/12/10 01:27:47;;;;;;;34.70;21.00;;;;;;;-3.03;100.00;100601.73;88451;282;25093;-69
2023/12/10 01:29:49;;;;;;;30.60;20.50;;;;;;;-3.01;100.00;100599.33;88377;282;137145;-68
2023/12/10 01:31:52;;;;;;;31.10;18.40;;;;;;;-2.96;100.00;100595.59;88576;275;22567;-68
2023/12/10 01:33:53;;;;;;;33.00;20.80;;;;;;;-2.92;100.00;100596.38;88403;275;137378;-71
2023/12/10 01:35:56;;;;;;;28.40;17.80;;;;;;;-2.92;100.00;100592.86;88476;275;25213;-68
2023/12/10 01:37:59;;;;;;;31.90;18.20;;;;;;;-2.87;100.00;100596.05;88426;282;137066;-68
2023/12/10 01:40:01;;;;;;;26.40;18.90;;;;;;;-2.85;100.00;100595.92;88446;276;22543;-70
2023/12/10 01:42:03;;;;;;;30.10;18.60;;;;;;;-2.84;100.00;100595.69;88413;280;23910;-70
2023/12/10 01:44:05;;;;;;;30.00;19.40;;;;;;;-2.84;100.00;100594.32;88370;282;136828;-69
2023/12/10 01:46:08;;;;;;;27.60;18.20;;;;;;;-2.88;100.00;100597.33;88410;276;25167;-67
2023/12/10 01:48:11;;;;;;;31.90;20.50;;;;;;;-2.91;100.00;100601.67;88424;279;137092;-69
2023/12/10 01:50:15;;;;;;;33.50;20.30;;;;;;;-2.93;100.00;100594.15;88489;282;22537;-68
2023/12/10 01:52:17;;;;;;;27.90;18.00;;;;;;;-2.94;100.00;100594.20;88391;275;137075;-68
2023/12/10 01:54:22;;;;;;;32.50;18.00;;;;;;;-2.92;100.00;100591.47;88589;275;24053;-69
2023/12/10 01:56:28;;;;;;;31.60;21.50;;;;;;;-2.88;100.00;100594.73;88272;274;137420;-68
2023/12/10 01:58:30;;;;;;;49.90;19.40;;;;;;;-2.85;100.00;100594.56;88574;274;22533;-68
2023/12/10 02:00:33;;;;;;;28.20;18.60;;;;;;;-2.83;100.00;100597.55;87798;281;872064;-66
2023/12/10 02:02:36;;;;;;;27.40;17.10;;;;;;;-2.81;100.00;100593.05;88649;282;24105;-67
2023/12/10 02:04:40;;;;;;;29.50;18.90;;;;;;;-2.77;100.00;100591.45;88460;279;137036;-67
2023/12/10 02:06:43;;;;;;;27.80;18.80;;;;;;;-2.78;100.00;100588.73;88521;276;22567;-67
2023/12/10 02:08:46;;;;;;;33.90;20.10;;;;;;;-2.81;100.00;100588.89;88470;282;136569;-66
2023/12/10 02:10:48;;;;;;;25.30;18.90;;;;;;;-2.84;100.00;100584.04;88497;274;22543;-67
2023/12/10 02:12:53;;;;;;;31.30;20.80;;;;;;;-2.89;100.00;100580.91;88326;275;136602;-70
2023/12/10 02:14:55;;;;;;;29.10;19.30;;;;;;;-2.95;100.00;100583.29;88437;276;22541;-68
2023/12/10 02:16:57;;;;;;;27.50;16.70;;;;;;;-3.04;100.00;100570.52;88371;275;137846;-69
2023/12/10 02:18:59;;;;;;;28.20;17.90;;;;;;;-2.99;100.00;100577.48;88492;280;22537;-70
2023/12/10 02:21:01;;;;;;;30.40;18.60;;;;;;;-3.00;100.00;100577.87;88394;275;137539;-68
2023/12/10 02:23:17;;;;;;;30.30;17.10;;;;;;;-2.99;100.00;100573.99;88518;276;25086;-70
2023/12/10 02:25:34;;;;;;;24.40;17.40;;;;;;;-2.98;100.00;100573.23;88387;275;137469;-67
2023/12/10 02:27:37;;;;;;;29.80;18.00;;;;;;;-2.97;100.00;100570.90;88561;282;22533;-70
2023/12/10 02:29:39;;;;;;;26.30;18.10;;;;;;;-2.95;100.00;100572.18;88426;275;138323;-68
2023/12/10 02:31:42;;;;;;;30.90;18.30;;;;;;;-2.93;100.00;100571.02;88304;276;25229;-70
2023/12/10 02:33:45;;;;;;;29.00;18.00;;;;;;;-2.92;100.00;100574.29;88365;276;136520;-69
2023/12/10 02:35:47;;;;;;;26.40;17.60;;;;;;;-3.01;100.00;100576.55;88405;280;25083;-68
2023/12/10 02:37:50;;;;;;;31.00;20.00;;;;;;;-3.10;100.00;100579.39;88400;275;137036;-67
2023/12/10 02:39:52;;;;;;;30.00;18.20;;;;;;;-3.15;100.00;100578.63;88541;275;25083;-66
2023/12/10 02:41:55;;;;;;;27.60;18.20;;;;;;;-3.16;100.00;100576.45;88487;282;136392;-65
2023/12/10 02:43:57;;;;;;;23.90;16.20;;;;;;;-3.16;100.00;100570.86;88533;282;22605;-69
2023/12/10 02:45:59;;;;;;;24.40;16.50;;;;;;;-3.09;100.00;100571.82;88352;282;137071;-69
2023/12/10 02:48:01;;;;;;;25.30;18.50;;;;;;;-3.05;100.00;100573.14;88375;282;24243;-69
2023/12/10 02:50:04;;;;;;;25.70;16.80;;;;;;;-3.01;100.00;100567.70;88406;282;24035;-70
2023/12/10 02:52:06;;;;;;;27.70;17.40;;;;;;;-2.98;100.00;100571.35;88380;275;137669;-69
2023/12/10 02:54:08;;;;;;;25.40;17.50;;;;;;;-2.95;100.00;100573.58;88417;278;22531;-71
2023/12/10 02:56:10;;;;;;;30.00;19.10;;;;;;;-2.92;100.00;100577.23;88362;275;138818;-66
2023/12/10 02:58:12;;;;;;;24.00;17.30;;;;;;;-2.90;100.00;100578.84;88325;282;22548;-67
2023/12/10 03:00:16;;;;;;;30.10;17.20;;;;;;;-2.87;100.00;100577.42;88293;279;137457;-69
2023/12/10 03:02:18;;;;;;;27.60;17.30;;;;;;;-2.89;100.00;100576.89;88665;282;22534;-69
2023/12/10 03:04:20;;;;;;;25.30;17.20;;;;;;;-2.97;100.00;100576.64;88363;275;136683;-69
2023/12/10 03:06:22;;;;;;;23.50;16.30;;;;;;;-3.04;100.00;100575.17;88543;282;24104;-67
2023/12/10 03:08:24;;;;;;;25.50;15.60;;;;;;;-3.08;100.00;100577.02;88667;279;136504;-67
2023/12/10 03:10:26;;;;;;;25.20;17.60;;;;;;;-3.11;100.00;100579.98;88520;276;22550;-68
2023/12/10 03:12:28;;;;;;;25.10;16.30;;;;;;;-3.12;100.00;100576.38;88468;275;138651;-72
2023/12/10 03:14:31;;;;;;;27.50;18.00;;;;;;;-3.11;100.00;100576.52;88277;283;25224;-68
2023/12/10 03:16:33;;;;;;;26.20;18.10;;;;;;;-3.11;100.00;100581.20;88328;282;137792;-68
2023/12/10 03:18:35;;;;;;;28.10;18.20;;;;;;;-3.10;100.00;100572.96;88418;275;25205;-68
2023/12/10 03:20:37;;;;;;;31.40;21.00;;;;;;;-3.07;100.00;100573.80;88293;275;137455;-68
2023/12/10 03:22:39;;;;;;;25.90;18.70;;;;;;;-3.03;100.00;100571.64;88569;281;24054;-70
2023/12/10 03:24:41;;;;;;;26.00;19.00;;;;;;;-2.99;100.00;100568.09;88430;281;137353;-67
2023/12/10 03:26:43;;;;;;;29.10;18.00;;;;;;;-2.95;100.00;100565.26;88444;282;22530;-68
2023/12/10 03:28:46;;;;;;;25.90;16.70;;;;;;;-2.92;100.00;100564.21;88370;282;136881;-69
2023/12/10 03:30:48;;;;;;;29.50;19.90;;;;;;;-2.93;100.00;100565.98;88558;281;24282;-69
2023/12/10 03:32:50;;;;;;;30.60;20.60;;;;;;;-2.96;100.00;100566.17;88388;276;136590;-70
2023/12/10 03:34:52;;;;;;;33.40;19.50;;;;;;;-2.98;100.00;100571.53;88517;282;22777;-70
2023/12/10 03:36:54;;;;;;;33.90;20.00;;;;;;;-3.02;100.00;100566.56;88315;280;141290;-67
2023/12/10 03:38:56;;;;;;;28.60;18.90;;;;;;;-3.06;100.00;100564.73;88410;276;24064;-67
2023/12/10 03:40:58;;;;;;;29.80;19.70;;;;;;;-3.07;100.00;100562.02;88381;282;136886;-68
2023/12/10 03:43:01;;;;;;;25.80;18.20;;;;;;;-3.04;100.00;100558.84;88519;275;25172;-68
2023/12/10 03:45:04;;;;;;;26.30;17.40;;;;;;;-3.00;100.00;100558.07;88453;279;137360;-69
2023/12/10 03:47:06;;;;;;;33.60;19.20;;;;;;;-2.97;100.00;100556.34;88503;275;25083;-70
2023/12/10 03:49:11;;;;;;;26.20;16.80;;;;;;;-2.93;100.00;100559.58;88382;282;137239;-69
2023/12/10 03:51:13;;;;;;;25.70;17.20;;;;;;;-2.89;100.00;100569.60;88542;275;25645;-69
2023/12/10 03:53:15;;;;;;;27.80;17.70;;;;;;;-2.96;100.00;100575.70;88281;274;136676;-71
2023/12/10 03:55:17;;;;;;;30.30;20.30;;;;;;;-3.07;100.00;100572.07;88455;275;25096;-68
2023/12/10 03:57:19;;;;;;;30.50;18.60;;;;;;;-3.18;100.00;100576.71;88376;281;137049;-68
2023/12/10 03:59:21;;;;;;;28.00;19.90;;;;;;;-3.23;100.00;100579.17;88458;281;25325;-68
2023/12/10 04:01:23;;;;;;;28.50;19.40;;;;;;;-3.23;100.00;100577.04;88414;282;137045;-66
2023/12/10 04:03:28;;;;;;;30.30;19.80;;;;;;;-3.16;100.00;100579.90;88625;282;24269;-67
2023/12/10 04:05:30;;;;;;;28.20;19.30;;;;;;;-3.10;100.00;100578.18;88496;282;138699;-67
2023/12/10 04:07:32;;;;;;;31.60;20.00;;;;;;;-3.08;100.00;100573.71;88354;283;22862;-67
2023/12/10 04:09:34;;;;;;;28.10;19.20;;;;;;;-3.05;100.00;100570.56;88350;282;137261;-68
2023/12/10 04:11:37;;;;;;;31.40;18.70;;;;;;;-3.12;100.00;100566.80;88446;279;22526;-68
2023/12/10 04:13:39;;;;;;;26.20;17.10;;;;;;;-3.23;100.00;100565.41;88228;282;138412;-67
2023/12/10 04:15:44;;;;;;;28.30;17.30;;;;;;;-3.32;100.00;100562.11;88486;283;22978;-67
2023/12/10 04:17:49;;;;;;;30.00;18.60;;;;;;;-3.33;100.00;100564.11;88420;282;137286;-67
2023/12/10 04:19:51;;;;;;;28.30;18.20;;;;;;;-3.30;100.00;100565.18;88486;282;24015;-68
2023/12/10 04:21:54;;;;;;;26.30;17.00;;;;;;;-3.27;100.00;100564.63;88266;275;137051;-66
2023/12/10 04:23:56;;;;;;;24.60;16.60;;;;;;;-3.25;100.00;100565.88;88479;282;22530;-63
2023/12/10 04:25:58;;;;;;;25.20;15.90;;;;;;;-3.22;100.00;100565.90;88407;278;137383;-70
2023/12/10 04:28:00;;;;;;;27.90;17.70;;;;;;;-3.25;100.00;100566.73;88433;278;22582;-67
2023/12/10 04:30:02;;;;;;;27.50;18.80;;;;;;;-3.25;100.00;100568.67;88450;274;136970;-70
2023/12/10 04:32:05;;;;;;;30.40;19.50;;;;;;;-3.23;100.00;100568.71;88509;282;137325;-66
2023/12/10 04:34:07;;;;;;;28.80;19.60;;;;;;;-3.25;100.00;100569.89;88478;280;22558;-65
2023/12/10 04:36:09;;;;;;;31.30;20.70;;;;;;;-3.29;100.00;100569.29;88418;282;137211;-65
2023/12/10 04:38:11;;;;;;;32.40;19.10;;;;;;;-3.33;100.00;100570.52;88517;282;22531;-71
2023/12/10 04:40:15;;;;;;;34.00;20.70;;;;;;;-3.35;100.00;100565.06;88373;282;137315;-67
2023/12/10 04:42:17;;;;;;;29.80;19.20;;;;;;;-3.30;100.00;100565.86;88467;282;24173;-66
2023/12/10 04:44:19;;;;;;;29.30;19.70;;;;;;;-3.24;100.00;100565.33;88359;282;141613;-71
2023/12/10 04:46:22;;;;;;;30.30;19.90;;;;;;;-3.22;100.00;100564.64;88348;276;22537;-68
2023/12/10 04:48:24;;;;;;;29.90;20.50;;;;;;;-3.21;100.00;100560.91;88288;279;137534;-68
2023/12/10 04:50:27;;;;;;;31.00;20.90;;;;;;;-3.19;100.00;100561.89;88611;279;24026;-70
2023/12/10 04:52:30;;;;;;;30.70;21.90;;;;;;;-3.20;100.00;100566.42;88325;279;137706;-68
2023/12/10 04:54:32;;;;;;;29.90;18.80;;;;;;;-3.20;100.00;100570.27;88651;282;24093;-67
2023/12/10 04:56:34;;;;;;;33.60;20.70;;;;;;;-3.20;100.00;100578.59;88413;282;137362;-68
2023/12/10 04:58:36;;;;;;;26.30;18.20;;;;;;;-3.18;100.00;100585.62;88429;282;25099;-69
2023/12/10 05:00:38;;;;;;;26.40;18.70;;;;;;;-3.16;100.00;100590.70;88378;282;137337;-70
2023/12/10 05:02:41;;;;;;;30.80;19.20;;;;;;;-3.13;100.00;100595.20;88174;275;25216;-69
2023/12/10 05:04:44;;;;;;;27.00;17.90;;;;;;;-3.16;100.00;100584.59;88285;278;137345;-69
2023/12/10 05:06:47;;;;;;;25.60;16.90;;;;;;;-3.05;100.00;100592.64;88522;274;24396;-71
2023/12/10 05:08:50;;;;;;;30.10;18.60;;;;;;;-3.05;100.00;100594.70;88412;275;136280;-68
2023/12/10 05:10:52;;;;;;;30.70;20.00;;;;;;;-3.11;100.00;100593.73;88379;275;22530;-70
2023/12/10 05:12:53;;;;;;;30.00;19.10;;;;;;;-3.18;100.00;100593.44;88347;282;136502;-70
2023/12/10 05:14:55;;;;;;;29.20;19.40;;;;;;;-3.19;100.00;100592.77;88327;275;24027;-70
2023/12/10 05:16:57;;;;;;;27.60;18.20;;;;;;;-3.13;100.00;100593.10;88196;279;137203;-70
2023/12/10 05:19:00;;;;;;;24.40;16.90;;;;;;;-3.08;100.00;100596.83;88336;278;22537;-70
2023/12/10 05:21:02;;;;;;;31.50;19.10;;;;;;;-3.07;100.00;100597.79;88243;278;137330;-70
2023/12/10 05:23:04;;;;;;;29.20;19.10;;;;;;;-3.04;100.00;100599.73;88368;275;22540;-69
2023/12/10 05:25:07;;;;;;;28.10;17.90;;;;;;;-3.01;100.00;100594.65;88017;276;137377;-70
2023/12/10 05:27:10;;;;;;;26.20;17.80;;;;;;;-3.06;100.00;100579.83;88447;275;22806;-70
2023/12/10 05:29:13;;;;;;;26.50;18.10;;;;;;;-3.00;100.00;100592.86;88361;274;139740;-71
2023/12/10 05:31:15;;;;;;;27.60;19.30;;;;;;;-2.99;100.00;100587.73;88379;281;22524;-68
2023/12/10 05:33:17;;;;;;;24.80;17.80;;;;;;;-2.96;100.00;100584.23;88191;282;139536;-68
2023/12/10 05:35:20;;;;;;;28.30;19.30;;;;;;;-2.95;100.00;100584.02;88455;282;24250;-69
2023/12/10 05:37:22;;;;;;;32.70;20.40;;;;;;;-2.99;100.00;100584.45;88241;276;137509;-69
2023/12/10 05:39:25;;;;;;;29.00;19.20;;;;;;;-3.02;100.00;100588.80;88262;280;22543;-71
2023/12/10 05:41:27;;;;;;;27.40;18.50;;;;;;;-3.05;100.00;100595.75;88327;275;136511;-68
2023/12/10 05:43:28;;;;;;;21.80;15.00;;;;;;;-3.05;100.00;100603.96;88368;279;22534;-72
2023/12/10 05:45:30;;;;;;;26.60;18.20;;;;;;;-3.05;100.00;100603.42;88303;275;138864;-68
2023/12/10 05:47:33;;;;;;;30.50;21.00;;;;;;;-3.06;100.00;100599.29;88380;274;22536;-68
2023/12/10 05:49:35;;;;;;;33.10;21.40;;;;;;;-3.10;100.00;100595.71;88172;276;137833;-68
2023/12/10 05:51:37;;;;;;;33.00;20.20;;;;;;;-3.15;100.00;100595.35;88347;280;22537;-69
2023/12/10 05:53:39;;;;;;;31.00;20.40;;;;;;;-3.17;100.00;100602.95;88201;275;137079;-67
2023/12/10 05:55:41;;;;;;;31.00;20.60;;;;;;;-3.17;100.00;100602.08;88490;275;23143;-67
2023/12/10 05:57:43;;;;;;;30.40;20.80;;;;;;;-3.16;100.00;100594.56;88167;279;137429;-69
2023/12/10 06:01:54;;;;;;;28.50;20.00;;;;;;;-3.20;100.00;100595.64;86392;306;603630;-70
2023/12/10 06:03:56;;;;;;;33.10;21.90;;;;;;;-3.24;100.00;100595.92;87674;294;22561;-70
2023/12/10 06:05:58;;;;;;;37.60;24.00;;;;;;;-3.30;100.00;100595.19;88079;284;135657;-68
2023/12/10 06:08:00;;;;;;;35.90;21.70;;;;;;;-3.32;100.00;100595.14;87859;283;24068;-69
2023/12/10 06:10:03;;;;;;;39.90;23.70;;;;;;;-3.32;100.00;100598.42;87746;281;136816;-70
2023/12/10 06:12:06;;;;;;;34.70;22.50;;;;;;;-3.36;100.00;100590.39;89542;282;137102;-68
2023/12/10 06:14:08;;;;;;;36.80;22.20;;;;;;;-3.24;100.00;100609.60;88388;286;24903;-69
2023/12/10 06:16:10;;;;;;;32.20;21.00;;;;;;;-3.24;100.00;100609.80;87413;281;586964;-65
2023/12/10 06:18:12;;;;;;;36.00;22.80;;;;;;;-3.26;100.00;100609.71;87998;286;23666;-68
2023/12/10 06:20:14;;;;;;;36.30;24.10;;;;;;;-3.27;100.00;100609.95;87929;284;136828;-65
2023/12/10 06:22:16;;;;;;;35.50;20.10;;;;;;;-3.26;100.00;100616.52;88039;284;22528;-66
2023/12/10 06:24:18;;;;;;;31.40;19.90;;;;;;;-3.24;100.00;100610.66;87962;283;137075;-69
2023/12/10 06:26:21;;;;;;;34.70;22.90;;;;;;;-3.21;100.00;100614.83;88187;287;25258;-69
2023/12/10 06:28:25;;;;;;;38.20;23.20;;;;;;;-3.17;100.00;100613.87;88042;287;138042;-69
2023/12/10 06:30:27;;;;;;;37.70;24.80;;;;;;;-3.13;100.00;100612.24;88048;287;22998;-68
2023/12/10 06:32:29;;;;;;;31.70;22.10;;;;;;;-3.21;100.00;100592.73;87985;280;138938;-73
2023/12/10 06:34:31;;;;;;;47.10;24.90;;;;;;;-3.14;100.00;100606.09;88190;280;22559;-69
2023/12/10 06:36:35;;;;;;;39.40;24.60;;;;;;;-3.16;100.00;100605.83;87974;280;136324;-69
2023/12/10 06:38:37;;;;;;;34.30;21.60;;;;;;;-3.12;100.00;100608.75;88080;280;23033;-68
2023/12/10 06:40:39;;;;;;;42.40;25.10;;;;;;;-3.12;100.00;100605.63;88102;283;136900;-70
2023/12/10 06:42:41;;;;;;;40.30;25.00;;;;;;;-3.15;100.00;100605.80;87988;280;22542;-67
2023/12/10 06:44:43;;;;;;;39.70;25.70;;;;;;;-3.17;100.00;100604.84;88971;284;138577;-66
2023/12/10 06:46:45;;;;;;;35.50;22.30;;;;;;;-3.17;100.00;100600.67;88052;287;24761;-71
2023/12/10 06:48:47;;;;;;;38.80;24.00;;;;;;;-3.15;100.00;100602.83;88089;278;138476;-69
2023/12/10 06:50:50;;;;;;;32.40;23.50;;;;;;;-3.15;100.00;100605.59;88272;286;24058;-69
2023/12/10 06:52:51;;;;;;;36.70;23.70;;;;;;;-3.15;100.00;100602.80;88085;278;138452;-71
2023/12/10 06:54:55;;;;;;;35.80;23.30;;;;;;;-3.11;100.00;100597.90;88205;281;23712;-71
2023/12/10 06:57:01;;;;;;;35.50;25.50;;;;;;;-3.09;100.00;100601.61;88161;278;136397;-67
2023/12/10 06:59:04;;;;;;;38.40;24.60;;;;;;;-3.13;100.00;100603.39;88137;278;22631;-70
2023/12/10 07:01:06;;;;;;;41.30;26.70;;;;;;;-3.15;100.00;100600.72;88125;278;136881;-68
2023/12/10 07:03:11;;;;;;;46.20;28.90;;;;;;;-3.15;100.00;100598.42;88424;281;22876;-71
2023/12/10 07:05:13;;;;;;;;;;;;;;;-3.12;100.00;100599.33;88205;278;137069;-68
2023/12/10 07:07:15;;;;;;;40.10;23.70;;;;;;;-3.08;100.00;100598.20;88197;278;23758;-69
2023/12/10 07:09:17;;;;;;;44.30;27.20;;;;;;;-3.05;100.00;100598.52;88100;278;137061;-65
2023/12/10 07:11:19;;;;;;;42.10;26.10;;;;;;;-3.01;100.00;100598.29;88181;279;22706;-67
2023/12/10 07:13:22;;;;;;;41.10;25.60;;;;;;;-3.00;100.00;100599.78;88091;278;138703;-69
2023/12/10 07:15:24;;;;;;;39.10;26.60;;;;;;;-2.98;100.00;100593.90;88271;278;25268;-67
2023/12/10 07:17:26;;;;;;;34.30;23.00;;;;;;;-2.96;100.00;100595.92;88092;285;137066;-68
2023/12/10 07:19:28;;;;;;;43.30;25.20;;;;;;;-2.97;100.00;100596.66;88142;279;25150;-70
2023/12/10 07:21:31;;;;;;;37.40;23.50;;;;;;;-2.98;100.00;100601.75;87958;282;136726;-67
2023/12/10 07:23:37;;;;;;;39.90;26.80;;;;;;;-3.00;100.00;100598.58;88164;285;22537;-70
2023/12/10 07:25:39;;;;;;;42.30;24.70;;;;;;;-3.05;100.00;100597.34;88312;279;138102;-69
2023/12/10 07:27:41;;;;;;;38.40;25.10;;;;;;;-3.06;100.00;100598.30;88062;282;22550;-69
2023/12/10 07:29:43;;;;;;;39.50;24.80;;;;;;;-3.04;100.00;100595.88;88005;278;138369;-69
2023/12/10 07:31:45;;;;;;;41.70;26.50;;;;;;;-3.00;100.00;100600.69;88147;281;22542;-68
2023/12/10 07:33:47;;;;;;;41.30;26.70;;;;;;;-2.99;100.00;100601.29;87932;279;136632;-67
2023/12/10 07:35:50;;;;;;;46.80;29.30;;;;;;;-3.00;100.00;100609.38;88152;278;22537;-71
2023/12/10 07:37:52;;;;;;;42.70;25.10;;;;;;;-2.99;100.00;100612.59;88180;277;136842;-72
2023/12/10 07:39:54;;;;;;;41.60;25.10;;;;;;;-2.93;100.00;100615.05;88122;277;24068;-74
2023/12/10 07:41:56;;;;;;;43.10;28.20;;;;;;;-2.93;100.00;100617.65;88120;285;135983;-71
2023/12/10 07:43:58;;;;;;;42.30;27.10;;;;;;;-2.96;100.00;100619.90;88180;285;22533;-72
2023/12/10 07:46:00;;;;;;;44.30;27.60;;;;;;;-2.96;100.00;100620.26;88242;275;137802;-71
2023/12/10 07:48:03;;;;;;;44.10;26.30;;;;;;;-2.94;100.00;100628.47;88452;275;22556;-68
2023/12/10 07:50:06;;;;;;;36.10;23.80;;;;;;;-2.92;100.00;100634.45;88356;275;24018;-68
2023/12/10 07:52:08;;;;;;;37.50;23.80;;;;;;;-2.97;100.00;100623.10;88286;275;137806;-69
2023/12/10 07:54:10;;;;;;;37.20;23.80;;;;;;;-2.86;100.00;100641.06;88359;274;22605;-69
2023/12/10 07:56:13;;;;;;;32.70;21.50;;;;;;;-2.85;100.00;100638.35;88201;274;137011;-69
2023/12/10 07:58:17;;;;;;;33.50;22.50;;;;;;;-2.95;100.00;100623.67;88467;274;22718;-69
2023/12/10 08:00:20;;;;;;;30.80;21.70;;;;;;;-2.84;100.00;100641.98;88438;274;137058;-68
2023/12/10 08:02:23;;;;;;;32.00;23.40;;;;;;;-2.86;100.00;100642.27;91297;281;22382;-69
2023/12/10 08:04:25;;;;;;;35.50;22.20;;;;;;;-2.86;100.00;100640.33;90119;279;137077;-70
2023/12/10 08:06:27;;;;;;;32.80;23.20;;;;;;;-2.93;100.00;100621.83;88445;282;25210;-70
2023/12/10 08:08:29;;;;;;;27.60;20.60;;;;;;;-2.82;100.00;100633.86;88104;281;138407;-70
2023/12/10 08:10:31;;;;;;;29.40;19.40;;;;;;;-2.78;100.00;100637.41;88171;275;23950;-68
2023/12/10 08:12:34;;;;;;;33.40;21.80;;;;;;;-2.73;100.00;100638.67;88352;279;137935;-69
2023/12/10 08:14:37;;;;;;;35.30;22.80;;;;;;;-2.68;100.00;100631.75;88541;275;22575;-68
2023/12/10 08:16:39;;;;;;;33.10;22.70;;;;;;;-2.60;100.00;100625.11;88325;281;138106;-70
2023/12/10 08:18:41;;;;;;;36.60;22.90;;;;;;;-2.52;100.00;100620.16;88496;274;22547;-69
2023/12/10 08:20:43;;;;;;;33.80;24.60;;;;;;;-2.49;100.00;100615.77;88412;274;136257;-68
2023/12/10 08:22:47;;;;;;;38.30;25.40;;;;;;;-2.46;100.00;100607.59;88383;275;24173;-69
2023/12/10 08:24:50;;;;;;;36.20;25.80;;;;;;;-2.40;100.00;100609.48;88259;274;136438;-73
2023/12/10 08:26:53;;;;;;;34.20;24.00;;;;;;;-2.34;100.00;100616.88;88531;275;22650;-69
2023/12/10 08:28:55;;;;;;;30.70;21.40;;;;;;;-2.25;100.00;100623.67;88268;274;136863;-70
2023/12/10 08:30:59;;;;;;;35.50;24.10;;;;;;;-2.33;100.00;100595.91;88361;281;23105;-70
2023/12/10 08:33:03;;;;;;;37.50;24.80;;;;;;;-2.15;100.00;100617.75;88262;273;138277;-69
2023/12/10 08:35:06;;;;;;;36.80;23.00;;;;;;;-2.14;100.00;100619.29;88442;273;22619;-70
2023/12/10 08:37:08;;;;;;;37.40;23.70;;;;;;;-2.11;100.00;100622.95;88441;281;137457;-69
2023/12/10 08:39:10;;;;;;;38.90;24.00;;;;;;;-2.10;100.00;100621.95;88502;279;22603;-70
2023/12/10 08:41:12;;;;;;;35.80;23.80;;;;;;;-2.08;100.00;100615.89;88422;273;136954;-70
2023/12/10 08:43:14;;;;;;;32.90;22.10;;;;;;;-2.08;100.00;100614.56;88438;275;22826;-71
2023/12/10 08:45:17;;;;;;;37.20;25.90;;;;;;;-2.14;100.00;100616.35;88346;281;137709;-70
2023/12/10 08:47:20;;;;;;;38.60;26.40;;;;;;;-2.21;100.00;100615.89;88584;274;24032;-70
2023/12/10 08:49:22;;;;;;;34.70;25.00;;;;;;;-2.28;100.00;100610.11;88296;273;136457;-69
2023/12/10 08:51:24;;;;;;;38.70;25.00;;;;;;;-2.37;100.00;100606.98;88452;273;22570;-69
2023/12/10 08:53:27;;;;;;;40.70;26.80;;;;;;;-2.42;100.00;100604.01;88313;274;136816;-70
2023/12/10 08:55:29;;;;;;;41.10;26.30;;;;;;;-2.40;100.00;100605.98;88364;274;23697;-72
2023/12/10 08:57:31;;;;;;;37.50;26.40;;;;;;;-2.36;100.00;100601.89;88264;278;136997;-70
2023/12/10 08:59:34;;;;;;;42.80;27.60;;;;;;;-2.30;100.00;100598.37;88464;274;22552;-69
2023/12/10 09:01:37;;;;;;;43.20;27.60;;;;;;;-2.23;100.00;100598.27;88271;275;138184;-71
2023/12/10 09:03:42;;;;;;;37.40;26.90;;;;;;;-2.14;100.00;100598.77;88448;274;22524;-70
2023/12/10 09:05:44;;;;;;;39.10;27.40;;;;;;;-2.06;100.00;100598.19;88236;274;137155;-71
2023/12/10 09:07:46;;;;;;;42.10;25.50;;;;;;;-2.00;100.00;100588.91;88460;278;22523;-68
2023/12/10 09:09:49;;;;;;;37.00;25.40;;;;;;;-1.96;100.00;100591.27;88292;274;136534;-67
2023/12/10 09:12:03;;;;;;;43.10;27.20;;;;;;;-1.99;100.00;100595.13;88275;277;137015;-65
2023/12/10 09:14:07;;;;;;;37.40;24.90;;;;;;;-2.08;100.00;100597.86;88516;274;25092;-68
2023/12/10 09:16:09;;;;;;;33.00;24.80;;;;;;;-2.17;100.00;100600.79;88361;281;138627;-69
2023/12/10 09:18:11;;;;;;;39.10;24.80;;;;;;;-2.17;100.00;100598.73;88364;278;22537;-70